sensor_id;sensor_type;location;lat;lon;timestamp;P1;durP1;ratioP1;P2;durP2;ratioP2
22634;SDS011;11484;50.858;4.384;2022-10-31T00:02:12;16.63;;;6.82;;
22634;SDS011;11484;50.858;4.384;2022-10-31T00:04:38;10.55;;;6.18;;
22634;SDS011;11484;50.858;4.384;2022-10-31T00:07:07;10.70;;;6.13;;
22634;SDS011;11484;50.858;4.384;2022-10-31T00:09:35;11.70;;;6.40;;
22634;SDS011;11484;50.858;4.384;2022-10-31T00:12:01;10.98;;;6.20;;
22634;SDS011;11484;50.858;4.384;2022-10-31T00:14:27;11.40;;;6.30;;
22634;SDS011;11484;50.858;4.384;2022-10-31T00:16:53;10.07;;;5.60;;
22634;SDS011;11484;50.858;4.384;2022-10-31T00:19:18;12.40;;;7.00;;
22634;SDS011;11484;50.858;4.384;2022-10-31T00:21:44;10.95;;;6.05;;
22634;SDS011;11484;50.858;4.384;2022-10-31T00:24:10;11.80;;;6.00;;
22634;SDS011;11484;50.858;4.384;2022-10-31T00:26:36;11.30;;;6.40;;
22634;SDS011;11484;50.858;4.384;2022-10-31T00:29:01;9.95;;;5.93;;
22634;SDS011;11484;50.858;4.384;2022-10-31T00:31:27;10.82;;;6.28;;
22634;SDS011;11484;50.858;4.384;2022-10-31T00:33:53;13.45;;;6.45;;
22634;SDS011;11484;50.858;4.384;2022-10-31T00:36:19;10.40;;;6.47;;
22634;SDS011;11484;50.858;4.384;2022-10-31T00:38:46;11.70;;;7.03;;
22634;SDS011;11484;50.858;4.384;2022-10-31T00:41:13;10.43;;;6.95;;
22634;SDS011;11484;50.858;4.384;2022-10-31T00:43:41;12.23;;;6.38;;
22634;SDS011;11484;50.858;4.384;2022-10-31T00:46:07;13.70;;;5.93;;
22634;SDS011;11484;50.858;4.384;2022-10-31T00:48:33;16.80;;;8.30;;
22634;SDS011;11484;50.858;4.384;2022-10-31T00:50:58;14.60;;;7.22;;
22634;SDS011;11484;50.858;4.384;2022-10-31T00:53:24;13.13;;;6.90;;
22634;SDS011;11484;50.858;4.384;2022-10-31T00:55:50;8.57;;;6.00;;
22634;SDS011;11484;50.858;4.384;2022-10-31T00:58:16;15.43;;;6.72;;
22634;SDS011;11484;50.858;4.384;2022-10-31T01:00:41;11.82;;;7.00;;
22634;SDS011;11484;50.858;4.384;2022-10-31T01:03:07;11.40;;;6.35;;
22634;SDS011;11484;50.858;4.384;2022-10-31T01:05:33;12.48;;;6.38;;
22634;SDS011;11484;50.858;4.384;2022-10-31T01:07:58;10.57;;;5.95;;
22634;SDS011;11484;50.858;4.384;2022-10-31T01:10:24;10.98;;;6.68;;
22634;SDS011;11484;50.858;4.384;2022-10-31T01:12:50;14.18;;;6.40;;
22634;SDS011;11484;50.858;4.384;2022-10-31T01:15:20;11.63;;;5.63;;
22634;SDS011;11484;50.858;4.384;2022-10-31T01:17:48;9.63;;;5.80;;
22634;SDS011;11484;50.858;4.384;2022-10-31T01:20:15;12.65;;;6.20;;
22634;SDS011;11484;50.858;4.384;2022-10-31T01:22:42;12.98;;;5.82;;
22634;SDS011;11484;50.858;4.384;2022-10-31T01:25:08;9.75;;;5.40;;
22634;SDS011;11484;50.858;4.384;2022-10-31T01:27:35;11.43;;;5.60;;
22634;SDS011;11484;50.858;4.384;2022-10-31T01:30:00;11.55;;;5.50;;
22634;SDS011;11484;50.858;4.384;2022-10-31T01:32:27;9.68;;;5.43;;
22634;SDS011;11484;50.858;4.384;2022-10-31T01:34:54;8.77;;;5.82;;
22634;SDS011;11484;50.858;4.384;2022-10-31T01:37:19;7.30;;;5.43;;
22634;SDS011;11484;50.858;4.384;2022-10-31T01:39:47;8.27;;;5.00;;
22634;SDS011;11484;50.858;4.384;2022-10-31T01:42:20;11.30;;;5.60;;
22634;SDS011;11484;50.858;4.384;2022-10-31T01:44:54;8.90;;;5.20;;
22634;SDS011;11484;50.858;4.384;2022-10-31T01:47:44;8.90;;;4.80;;
22634;SDS011;11484;50.858;4.384;2022-10-31T01:50:18;9.32;;;4.78;;
22634;SDS011;11484;50.858;4.384;2022-10-31T01:52:57;10.05;;;5.45;;
22634;SDS011;11484;50.858;4.384;2022-10-31T01:57:54;9.15;;;5.15;;
22634;SDS011;11484;50.858;4.384;2022-10-31T02:00:22;11.55;;;5.38;;
22634;SDS011;11484;50.858;4.384;2022-10-31T02:02:48;9.68;;;5.38;;
22634;SDS011;11484;50.858;4.384;2022-10-31T02:05:18;10.48;;;5.43;;
22634;SDS011;11484;50.858;4.384;2022-10-31T02:10:39;9.98;;;5.97;;
22634;SDS011;11484;50.858;4.384;2022-10-31T02:13:07;11.32;;;5.78;;
22634;SDS011;11484;50.858;4.384;2022-10-31T02:15:33;8.40;;;5.53;;
22634;SDS011;11484;50.858;4.384;2022-10-31T02:18:01;9.10;;;5.80;;
22634;SDS011;11484;50.858;4.384;2022-10-31T02:20:30;10.60;;;5.57;;
22634;SDS011;11484;50.858;4.384;2022-10-31T02:25:45;9.65;;;5.53;;
22634;SDS011;11484;50.858;4.384;2022-10-31T02:31:23;10.75;;;5.78;;
22634;SDS011;11484;50.858;4.384;2022-10-31T02:34:02;9.82;;;5.63;;
22634;SDS011;11484;50.858;4.384;2022-10-31T02:37:01;8.45;;;5.30;;
22634;SDS011;11484;50.858;4.384;2022-10-31T02:42:27;11.25;;;6.35;;
22634;SDS011;11484;50.858;4.384;2022-10-31T02:45:23;10.32;;;5.80;;
22634;SDS011;11484;50.858;4.384;2022-10-31T02:47:51;9.20;;;5.72;;
22634;SDS011;11484;50.858;4.384;2022-10-31T02:50:22;12.80;;;5.50;;
22634;SDS011;11484;50.858;4.384;2022-10-31T02:52:55;10.90;;;6.15;;
22634;SDS011;11484;50.858;4.384;2022-10-31T02:57:53;13.32;;;6.10;;
22634;SDS011;11484;50.858;4.384;2022-10-31T03:00:24;8.88;;;6.03;;
22634;SDS011;11484;50.858;4.384;2022-10-31T03:05:55;9.95;;;6.20;;
22634;SDS011;11484;50.858;4.384;2022-10-31T03:11:12;11.55;;;6.45;;
22634;SDS011;11484;50.858;4.384;2022-10-31T03:16:16;9.43;;;5.93;;
22634;SDS011;11484;50.858;4.384;2022-10-31T03:19:03;12.95;;;6.30;;
22634;SDS011;11484;50.858;4.384;2022-10-31T03:24:10;10.00;;;6.28;;
22634;SDS011;11484;50.858;4.384;2022-10-31T03:26:39;11.48;;;6.57;;
22634;SDS011;11484;50.858;4.384;2022-10-31T03:31:37;15.30;;;6.93;;
22634;SDS011;11484;50.858;4.384;2022-10-31T03:34:08;11.15;;;6.40;;
22634;SDS011;11484;50.858;4.384;2022-10-31T03:36:37;11.77;;;6.68;;
22634;SDS011;11484;50.858;4.384;2022-10-31T03:39:05;9.82;;;6.43;;
22634;SDS011;11484;50.858;4.384;2022-10-31T03:41:34;12.88;;;6.63;;
22634;SDS011;11484;50.858;4.384;2022-10-31T03:44:05;10.93;;;6.32;;
22634;SDS011;11484;50.858;4.384;2022-10-31T03:46:33;13.83;;;6.40;;
22634;SDS011;11484;50.858;4.384;2022-10-31T03:48:59;8.60;;;6.25;;
22634;SDS011;11484;50.858;4.384;2022-10-31T03:51:30;11.82;;;6.78;;
22634;SDS011;11484;50.858;4.384;2022-10-31T03:54:14;11.68;;;6.10;;
22634;SDS011;11484;50.858;4.384;2022-10-31T03:56:50;11.23;;;6.32;;
22634;SDS011;11484;50.858;4.384;2022-10-31T03:59:24;11.98;;;6.80;;
22634;SDS011;11484;50.858;4.384;2022-10-31T04:01:55;11.75;;;6.32;;
22634;SDS011;11484;50.858;4.384;2022-10-31T04:04:26;13.52;;;6.90;;
22634;SDS011;11484;50.858;4.384;2022-10-31T04:06:54;11.27;;;6.35;;
22634;SDS011;11484;50.858;4.384;2022-10-31T04:09:22;12.38;;;7.07;;
22634;SDS011;11484;50.858;4.384;2022-10-31T04:11:50;9.25;;;6.38;;
22634;SDS011;11484;50.858;4.384;2022-10-31T04:14:18;14.02;;;7.00;;
22634;SDS011;11484;50.858;4.384;2022-10-31T04:16:47;11.35;;;6.38;;
22634;SDS011;11484;50.858;4.384;2022-10-31T04:19:13;11.02;;;7.05;;
22634;SDS011;11484;50.858;4.384;2022-10-31T04:21:40;10.52;;;7.50;;
22634;SDS011;11484;50.858;4.384;2022-10-31T04:24:08;10.07;;;7.30;;
22634;SDS011;11484;50.858;4.384;2022-10-31T04:26:34;13.25;;;7.38;;
22634;SDS011;11484;50.858;4.384;2022-10-31T04:29:00;11.15;;;7.43;;
22634;SDS011;11484;50.858;4.384;2022-10-31T04:31:26;11.55;;;7.43;;
22634;SDS011;11484;50.858;4.384;2022-10-31T04:33:52;11.38;;;6.70;;
22634;SDS011;11484;50.858;4.384;2022-10-31T04:36:18;12.27;;;7.57;;
22634;SDS011;11484;50.858;4.384;2022-10-31T04:38:43;13.10;;;8.00;;
22634;SDS011;11484;50.858;4.384;2022-10-31T04:41:09;12.23;;;7.97;;
22634;SDS011;11484;50.858;4.384;2022-10-31T04:43:35;13.25;;;8.30;;
22634;SDS011;11484;50.858;4.384;2022-10-31T04:46:00;14.43;;;7.85;;
22634;SDS011;11484;50.858;4.384;2022-10-31T04:48:26;13.73;;;8.05;;
22634;SDS011;11484;50.858;4.384;2022-10-31T04:50:52;13.55;;;8.18;;
22634;SDS011;11484;50.858;4.384;2022-10-31T04:53:17;11.82;;;7.93;;
22634;SDS011;11484;50.858;4.384;2022-10-31T04:55:43;14.45;;;7.93;;
22634;SDS011;11484;50.858;4.384;2022-10-31T04:58:10;17.05;;;8.52;;
22634;SDS011;11484;50.858;4.384;2022-10-31T05:00:35;12.48;;;7.80;;
22634;SDS011;11484;50.858;4.384;2022-10-31T05:03:01;15.60;;;8.65;;
22634;SDS011;11484;50.858;4.384;2022-10-31T05:05:28;13.95;;;8.50;;
22634;SDS011;11484;50.858;4.384;2022-10-31T05:07:55;17.38;;;8.65;;
22634;SDS011;11484;50.858;4.384;2022-10-31T05:10:23;13.07;;;8.60;;
22634;SDS011;11484;50.858;4.384;2022-10-31T05:12:59;14.50;;;9.32;;
22634;SDS011;11484;50.858;4.384;2022-10-31T05:15:26;14.95;;;9.20;;
22634;SDS011;11484;50.858;4.384;2022-10-31T05:17:53;14.60;;;9.02;;
22634;SDS011;11484;50.858;4.384;2022-10-31T05:20:21;14.52;;;9.18;;
22634;SDS011;11484;50.858;4.384;2022-10-31T05:22:49;16.70;;;9.68;;
22634;SDS011;11484;50.858;4.384;2022-10-31T05:25:16;21.55;;;9.52;;
22634;SDS011;11484;50.858;4.384;2022-10-31T05:27:44;15.27;;;9.52;;
22634;SDS011;11484;50.858;4.384;2022-10-31T05:30:11;20.02;;;10.40;;
22634;SDS011;11484;50.858;4.384;2022-10-31T05:32:39;25.65;;;10.63;;
22634;SDS011;11484;50.858;4.384;2022-10-31T05:35:09;23.58;;;10.85;;
22634;SDS011;11484;50.858;4.384;2022-10-31T05:37:36;23.73;;;11.23;;
22634;SDS011;11484;50.858;4.384;2022-10-31T05:40:03;17.85;;;9.77;;
22634;SDS011;11484;50.858;4.384;2022-10-31T05:42:29;18.25;;;10.20;;
22634;SDS011;11484;50.858;4.384;2022-10-31T05:44:55;18.42;;;10.95;;
22634;SDS011;11484;50.858;4.384;2022-10-31T05:47:21;22.13;;;10.80;;
22634;SDS011;11484;50.858;4.384;2022-10-31T05:49:46;20.40;;;11.15;;
22634;SDS011;11484;50.858;4.384;2022-10-31T05:52:12;19.60;;;10.30;;
22634;SDS011;11484;50.858;4.384;2022-10-31T05:54:38;15.98;;;10.07;;
22634;SDS011;11484;50.858;4.384;2022-10-31T05:57:04;16.95;;;10.93;;
22634;SDS011;11484;50.858;4.384;2022-10-31T05:59:29;16.23;;;10.73;;
22634;SDS011;11484;50.858;4.384;2022-10-31T06:01:55;18.40;;;11.02;;
22634;SDS011;11484;50.858;4.384;2022-10-31T06:04:21;19.25;;;11.27;;
22634;SDS011;11484;50.858;4.384;2022-10-31T06:07:00;20.27;;;10.57;;
22634;SDS011;11484;50.858;4.384;2022-10-31T06:09:26;18.05;;;9.82;;
22634;SDS011;11484;50.858;4.384;2022-10-31T06:11:51;20.05;;;9.82;;
22634;SDS011;11484;50.858;4.384;2022-10-31T06:14:17;16.17;;;9.65;;
22634;SDS011;11484;50.858;4.384;2022-10-31T06:16:43;17.40;;;10.60;;
22634;SDS011;11484;50.858;4.384;2022-10-31T06:19:08;14.70;;;9.93;;
22634;SDS011;11484;50.858;4.384;2022-10-31T06:21:34;20.20;;;10.07;;
22634;SDS011;11484;50.858;4.384;2022-10-31T06:24:00;17.58;;;9.95;;
22634;SDS011;11484;50.858;4.384;2022-10-31T06:26:26;17.48;;;10.00;;
22634;SDS011;11484;50.858;4.384;2022-10-31T06:28:51;15.30;;;9.90;;
22634;SDS011;11484;50.858;4.384;2022-10-31T06:31:17;17.60;;;9.73;;
22634;SDS011;11484;50.858;4.384;2022-10-31T06:33:43;20.95;;;11.40;;
22634;SDS011;11484;50.858;4.384;2022-10-31T06:36:09;16.73;;;10.02;;
22634;SDS011;11484;50.858;4.384;2022-10-31T06:38:35;18.27;;;10.75;;
22634;SDS011;11484;50.858;4.384;2022-10-31T06:41:05;18.88;;;10.07;;
22634;SDS011;11484;50.858;4.384;2022-10-31T06:43:31;19.23;;;10.35;;
22634;SDS011;11484;50.858;4.384;2022-10-31T06:46:01;14.60;;;9.50;;
22634;SDS011;11484;50.858;4.384;2022-10-31T06:48:28;19.42;;;10.57;;
22634;SDS011;11484;50.858;4.384;2022-10-31T06:50:56;18.02;;;10.30;;
22634;SDS011;11484;50.858;4.384;2022-10-31T06:53:23;17.10;;;9.30;;
22634;SDS011;11484;50.858;4.384;2022-10-31T06:55:49;19.23;;;9.75;;
22634;SDS011;11484;50.858;4.384;2022-10-31T06:58:15;19.30;;;9.93;;
22634;SDS011;11484;50.858;4.384;2022-10-31T07:00:40;16.30;;;9.85;;
22634;SDS011;11484;50.858;4.384;2022-10-31T07:03:09;23.35;;;10.82;;
22634;SDS011;11484;50.858;4.384;2022-10-31T07:05:36;19.17;;;10.00;;
22634;SDS011;11484;50.858;4.384;2022-10-31T07:08:03;13.23;;;9.30;;
22634;SDS011;11484;50.858;4.384;2022-10-31T07:10:32;12.45;;;8.60;;
22634;SDS011;11484;50.858;4.384;2022-10-31T07:13:00;15.45;;;9.80;;
22634;SDS011;11484;50.858;4.384;2022-10-31T07:15:28;16.23;;;9.65;;
22634;SDS011;11484;50.858;4.384;2022-10-31T07:17:59;15.88;;;9.57;;
22634;SDS011;11484;50.858;4.384;2022-10-31T07:20:26;19.17;;;10.30;;
22634;SDS011;11484;50.858;4.384;2022-10-31T07:22:52;16.20;;;10.02;;
22634;SDS011;11484;50.858;4.384;2022-10-31T07:25:18;14.07;;;9.48;;
22634;SDS011;11484;50.858;4.384;2022-10-31T07:27:44;19.13;;;10.30;;
22634;SDS011;11484;50.858;4.384;2022-10-31T07:30:10;14.55;;;10.45;;
22634;SDS011;11484;50.858;4.384;2022-10-31T07:32:40;15.05;;;10.15;;
22634;SDS011;11484;50.858;4.384;2022-10-31T07:35:07;18.85;;;11.25;;
22634;SDS011;11484;50.858;4.384;2022-10-31T07:37:33;17.80;;;10.10;;
22634;SDS011;11484;50.858;4.384;2022-10-31T07:39:59;14.15;;;8.45;;
22634;SDS011;11484;50.858;4.384;2022-10-31T07:42:25;19.63;;;10.60;;
22634;SDS011;11484;50.858;4.384;2022-10-31T07:44:51;17.42;;;9.15;;
22634;SDS011;11484;50.858;4.384;2022-10-31T07:47:16;18.17;;;10.38;;
22634;SDS011;11484;50.858;4.384;2022-10-31T07:49:42;12.90;;;8.95;;
22634;SDS011;11484;50.858;4.384;2022-10-31T07:52:07;12.95;;;8.82;;
22634;SDS011;11484;50.858;4.384;2022-10-31T07:54:33;17.48;;;9.13;;
22634;SDS011;11484;50.858;4.384;2022-10-31T07:56:59;15.80;;;8.98;;
22634;SDS011;11484;50.858;4.384;2022-10-31T07:59:24;13.80;;;8.65;;
22634;SDS011;11484;50.858;4.384;2022-10-31T08:01:52;17.10;;;8.45;;
22634;SDS011;11484;50.858;4.384;2022-10-31T08:04:18;14.30;;;9.10;;
22634;SDS011;11484;50.858;4.384;2022-10-31T08:06:43;13.73;;;8.55;;
22634;SDS011;11484;50.858;4.384;2022-10-31T08:09:09;16.02;;;8.80;;
22634;SDS011;11484;50.858;4.384;2022-10-31T08:11:35;17.20;;;9.02;;
22634;SDS011;11484;50.858;4.384;2022-10-31T08:14:00;15.35;;;9.30;;
22634;SDS011;11484;50.858;4.384;2022-10-31T08:16:26;17.98;;;8.88;;
22634;SDS011;11484;50.858;4.384;2022-10-31T08:18:52;12.85;;;7.97;;
22634;SDS011;11484;50.858;4.384;2022-10-31T08:21:20;12.93;;;7.75;;
22634;SDS011;11484;50.858;4.384;2022-10-31T08:23:46;14.40;;;9.30;;
22634;SDS011;11484;50.858;4.384;2022-10-31T08:26:12;15.05;;;8.27;;
22634;SDS011;11484;50.858;4.384;2022-10-31T08:28:37;14.77;;;8.90;;
22634;SDS011;11484;50.858;4.384;2022-10-31T08:31:03;15.20;;;9.50;;
22634;SDS011;11484;50.858;4.384;2022-10-31T08:33:29;15.07;;;9.40;;
22634;SDS011;11484;50.858;4.384;2022-10-31T08:35:57;14.90;;;8.10;;
22634;SDS011;11484;50.858;4.384;2022-10-31T08:38:23;16.17;;;8.50;;
22634;SDS011;11484;50.858;4.384;2022-10-31T08:40:49;15.48;;;9.13;;
22634;SDS011;11484;50.858;4.384;2022-10-31T08:43:16;14.35;;;8.20;;
22634;SDS011;11484;50.858;4.384;2022-10-31T08:45:44;16.20;;;9.70;;
22634;SDS011;11484;50.858;4.384;2022-10-31T08:48:14;13.05;;;8.40;;
22634;SDS011;11484;50.858;4.384;2022-10-31T08:50:42;13.23;;;8.27;;
22634;SDS011;11484;50.858;4.384;2022-10-31T08:53:09;16.05;;;9.02;;
22634;SDS011;11484;50.858;4.384;2022-10-31T08:55:40;16.65;;;8.40;;
22634;SDS011;11484;50.858;4.384;2022-10-31T08:58:07;15.50;;;8.32;;
22634;SDS011;11484;50.858;4.384;2022-10-31T09:00:35;11.73;;;7.40;;
22634;SDS011;11484;50.858;4.384;2022-10-31T09:03:03;11.85;;;7.43;;
22634;SDS011;11484;50.858;4.384;2022-10-31T09:05:31;17.85;;;9.15;;
22634;SDS011;11484;50.858;4.384;2022-10-31T09:07:58;12.20;;;7.75;;
22634;SDS011;11484;50.858;4.384;2022-10-31T09:10:24;12.88;;;8.02;;
22634;SDS011;11484;50.858;4.384;2022-10-31T09:12:55;11.57;;;7.30;;
22634;SDS011;11484;50.858;4.384;2022-10-31T09:17:47;11.93;;;7.13;;
22634;SDS011;11484;50.858;4.384;2022-10-31T09:20:13;16.25;;;7.32;;
22634;SDS011;11484;50.858;4.384;2022-10-31T09:22:39;13.55;;;7.38;;
22634;SDS011;11484;50.858;4.384;2022-10-31T09:25:05;11.48;;;7.07;;
22634;SDS011;11484;50.858;4.384;2022-10-31T09:27:30;12.68;;;7.18;;
22634;SDS011;11484;50.858;4.384;2022-10-31T09:29:56;10.68;;;7.35;;
22634;SDS011;11484;50.858;4.384;2022-10-31T09:32:22;12.82;;;7.00;;
22634;SDS011;11484;50.858;4.384;2022-10-31T09:34:47;11.40;;;7.32;;
22634;SDS011;11484;50.858;4.384;2022-10-31T09:37:13;13.88;;;7.80;;
22634;SDS011;11484;50.858;4.384;2022-10-31T09:39:39;12.82;;;7.53;;
22634;SDS011;11484;50.858;4.384;2022-10-31T09:42:48;9.93;;;6.97;;
22634;SDS011;11484;50.858;4.384;2022-10-31T09:45:16;13.02;;;6.95;;
22634;SDS011;11484;50.858;4.384;2022-10-31T09:50:46;12.40;;;6.72;;
22634;SDS011;11484;50.858;4.384;2022-10-31T09:55:55;12.50;;;6.75;;
22634;SDS011;11484;50.858;4.384;2022-10-31T09:58:23;13.35;;;6.38;;
22634;SDS011;11484;50.858;4.384;2022-10-31T10:00:56;10.23;;;6.50;;
22634;SDS011;11484;50.858;4.384;2022-10-31T10:06:29;11.18;;;6.05;;
22634;SDS011;11484;50.858;4.384;2022-10-31T10:08:57;12.45;;;6.70;;
22634;SDS011;11484;50.858;4.384;2022-10-31T10:26:18;10.20;;;6.90;;
22634;SDS011;11484;50.858;4.384;2022-10-31T10:28:51;11.77;;;6.20;;
22634;SDS011;11484;50.858;4.384;2022-10-31T10:31:26;15.40;;;7.50;;
22634;SDS011;11484;50.858;4.384;2022-10-31T10:34:01;12.15;;;7.20;;
22634;SDS011;11484;50.858;4.384;2022-10-31T10:36:36;11.23;;;6.35;;
22634;SDS011;11484;50.858;4.384;2022-10-31T10:39:14;11.07;;;6.70;;
22634;SDS011;11484;50.858;4.384;2022-10-31T10:41:41;12.57;;;6.55;;
22634;SDS011;11484;50.858;4.384;2022-10-31T10:44:12;13.05;;;7.28;;
22634;SDS011;11484;50.858;4.384;2022-10-31T10:46:40;14.60;;;6.80;;
22634;SDS011;11484;50.858;4.384;2022-10-31T10:49:34;12.23;;;7.32;;
22634;SDS011;11484;50.858;4.384;2022-10-31T11:00:19;12.07;;;6.93;;
22634;SDS011;11484;50.858;4.384;2022-10-31T11:02:56;12.80;;;6.70;;
22634;SDS011;11484;50.858;4.384;2022-10-31T11:08:10;16.05;;;8.07;;
22634;SDS011;11484;50.858;4.384;2022-10-31T11:10:36;14.48;;;8.10;;
22634;SDS011;11484;50.858;4.384;2022-10-31T11:18:29;14.80;;;8.55;;
22634;SDS011;11484;50.858;4.384;2022-10-31T11:20:57;13.07;;;8.35;;
22634;SDS011;11484;50.858;4.384;2022-10-31T11:23:26;12.63;;;8.00;;
22634;SDS011;11484;50.858;4.384;2022-10-31T11:26:00;18.05;;;8.60;;
22634;SDS011;11484;50.858;4.384;2022-10-31T11:28:32;17.83;;;9.07;;
22634;SDS011;11484;50.858;4.384;2022-10-31T11:31:05;14.88;;;8.43;;
22634;SDS011;11484;50.858;4.384;2022-10-31T11:36:02;14.65;;;8.00;;
22634;SDS011;11484;50.858;4.384;2022-10-31T11:38:41;17.63;;;8.18;;
22634;SDS011;11484;50.858;4.384;2022-10-31T11:43:46;14.45;;;8.57;;
22634;SDS011;11484;50.858;4.384;2022-10-31T11:46:30;16.85;;;9.27;;
22634;SDS011;11484;50.858;4.384;2022-10-31T11:49:06;14.43;;;8.00;;
22634;SDS011;11484;50.858;4.384;2022-10-31T11:51:54;12.95;;;7.80;;
22634;SDS011;11484;50.858;4.384;2022-10-31T11:54:26;13.05;;;8.40;;
22634;SDS011;11484;50.858;4.384;2022-10-31T11:57:01;14.90;;;7.85;;
22634;SDS011;11484;50.858;4.384;2022-10-31T11:59:28;15.13;;;8.32;;
22634;SDS011;11484;50.858;4.384;2022-10-31T12:01:57;13.00;;;8.10;;
22634;SDS011;11484;50.858;4.384;2022-10-31T12:04:30;19.23;;;9.52;;
22634;SDS011;11484;50.858;4.384;2022-10-31T12:07:06;15.75;;;8.75;;
22634;SDS011;11484;50.858;4.384;2022-10-31T12:09:33;19.70;;;9.00;;
22634;SDS011;11484;50.858;4.384;2022-10-31T12:33:20;14.10;;;7.55;;
22634;SDS011;11484;50.858;4.384;2022-10-31T12:58:12;12.35;;;6.40;;
22634;SDS011;11484;50.858;4.384;2022-10-31T13:00:48;11.93;;;6.45;;
22634;SDS011;11484;50.858;4.384;2022-10-31T13:03:33;12.20;;;6.65;;
22634;SDS011;11484;50.858;4.384;2022-10-31T13:06:11;14.10;;;6.83;;
22634;SDS011;11484;50.858;4.384;2022-10-31T13:08:47;18.75;;;6.95;;
22634;SDS011;11484;50.858;4.384;2022-10-31T13:11:43;11.50;;;6.57;;
22634;SDS011;11484;50.858;4.384;2022-10-31T13:16:52;12.55;;;5.90;;
22634;SDS011;11484;50.858;4.384;2022-10-31T13:19:31;13.98;;;6.38;;
22634;SDS011;11484;50.858;4.384;2022-10-31T13:22:21;16.20;;;5.65;;
22634;SDS011;11484;50.858;4.384;2022-10-31T13:24:53;14.23;;;6.28;;
22634;SDS011;11484;50.858;4.384;2022-10-31T13:27:29;15.10;;;6.32;;
22634;SDS011;11484;50.858;4.384;2022-10-31T13:40:59;12.95;;;6.35;;
22634;SDS011;11484;50.858;4.384;2022-10-31T13:46:48;14.90;;;6.60;;
22634;SDS011;11484;50.858;4.384;2022-10-31T13:50:02;13.48;;;7.30;;
22634;SDS011;11484;50.858;4.384;2022-10-31T13:54:46;12.48;;;6.78;;
22634;SDS011;11484;50.858;4.384;2022-10-31T14:02:45;10.77;;;6.28;;
22634;SDS011;11484;50.858;4.384;2022-10-31T14:05:32;14.57;;;6.75;;
22634;SDS011;11484;50.858;4.384;2022-10-31T14:08:00;12.18;;;5.93;;
22634;SDS011;11484;50.858;4.384;2022-10-31T14:10:38;10.02;;;5.78;;
22634;SDS011;11484;50.858;4.384;2022-10-31T14:13:14;14.37;;;5.93;;
22634;SDS011;11484;50.858;4.384;2022-10-31T14:15:42;13.40;;;6.53;;
22634;SDS011;11484;50.858;4.384;2022-10-31T14:18:25;9.65;;;5.60;;
22634;SDS011;11484;50.858;4.384;2022-10-31T14:20:56;12.10;;;5.80;;
22634;SDS011;11484;50.858;4.384;2022-10-31T14:23:30;12.57;;;6.65;;
22634;SDS011;11484;50.858;4.384;2022-10-31T14:32:23;18.13;;;4.70;;
22634;SDS011;11484;50.858;4.384;2022-10-31T14:51:22;11.30;;;5.03;;
22634;SDS011;11484;50.858;4.384;2022-10-31T14:53:52;11.95;;;4.93;;
22634;SDS011;11484;50.858;4.384;2022-10-31T14:56:26;11.65;;;5.55;;
22634;SDS011;11484;50.858;4.384;2022-10-31T14:58:58;14.38;;;5.32;;
22634;SDS011;11484;50.858;4.384;2022-10-31T15:01:27;9.43;;;4.90;;
22634;SDS011;11484;50.858;4.384;2022-10-31T15:04:16;13.45;;;5.13;;
22634;SDS011;11484;50.858;4.384;2022-10-31T15:07:17;12.07;;;5.55;;
22634;SDS011;11484;50.858;4.384;2022-10-31T15:14:50;9.25;;;4.95;;
22634;SDS011;11484;50.858;4.384;2022-10-31T15:17:15;15.73;;;5.82;;
22634;SDS011;11484;50.858;4.384;2022-10-31T15:19:41;13.70;;;6.95;;
22634;SDS011;11484;50.858;4.384;2022-10-31T15:22:10;13.55;;;5.55;;
22634;SDS011;11484;50.858;4.384;2022-10-31T15:24:41;13.23;;;6.60;;
22634;SDS011;11484;50.858;4.384;2022-10-31T15:27:15;14.32;;;6.35;;
22634;SDS011;11484;50.858;4.384;2022-10-31T15:29:52;15.68;;;7.07;;
22634;SDS011;11484;50.858;4.384;2022-10-31T15:32:23;15.40;;;7.18;;
22634;SDS011;11484;50.858;4.384;2022-10-31T15:34:54;16.20;;;6.53;;
22634;SDS011;11484;50.858;4.384;2022-10-31T15:37:24;11.40;;;6.77;;
22634;SDS011;11484;50.858;4.384;2022-10-31T15:39:50;15.05;;;7.18;;
22634;SDS011;11484;50.858;4.384;2022-10-31T15:42:24;15.18;;;6.95;;
22634;SDS011;11484;50.858;4.384;2022-10-31T15:45:05;14.40;;;6.72;;
22634;SDS011;11484;50.858;4.384;2022-10-31T15:50:38;16.60;;;8.18;;
22634;SDS011;11484;50.858;4.384;2022-10-31T15:53:14;18.92;;;8.43;;
22634;SDS011;11484;50.858;4.384;2022-10-31T15:55:49;20.07;;;8.47;;
22634;SDS011;11484;50.858;4.384;2022-10-31T15:58:20;19.98;;;8.32;;
22634;SDS011;11484;50.858;4.384;2022-10-31T16:00:56;16.13;;;8.68;;
22634;SDS011;11484;50.858;4.384;2022-10-31T16:03:26;17.90;;;8.15;;
22634;SDS011;11484;50.858;4.384;2022-10-31T16:05:58;16.92;;;8.57;;
22634;SDS011;11484;50.858;4.384;2022-10-31T16:10:54;15.48;;;8.50;;
22634;SDS011;11484;50.858;4.384;2022-10-31T16:13:31;18.58;;;8.95;;
22634;SDS011;11484;50.858;4.384;2022-10-31T16:16:27;18.83;;;8.35;;
22634;SDS011;11484;50.858;4.384;2022-10-31T16:18:54;16.08;;;7.57;;
22634;SDS011;11484;50.858;4.384;2022-10-31T16:21:29;18.58;;;8.95;;
22634;SDS011;11484;50.858;4.384;2022-10-31T16:24:04;18.15;;;8.75;;
22634;SDS011;11484;50.858;4.384;2022-10-31T16:26:40;16.33;;;8.90;;
22634;SDS011;11484;50.858;4.384;2022-10-31T16:29:22;18.25;;;9.80;;
22634;SDS011;11484;50.858;4.384;2022-10-31T16:31:53;21.38;;;9.90;;
22634;SDS011;11484;50.858;4.384;2022-10-31T16:34:20;19.42;;;10.00;;
22634;SDS011;11484;50.858;4.384;2022-10-31T16:36:47;16.10;;;8.43;;
22634;SDS011;11484;50.858;4.384;2022-10-31T16:39:13;19.65;;;8.57;;
22634;SDS011;11484;50.858;4.384;2022-10-31T16:41:42;18.38;;;8.85;;
22634;SDS011;11484;50.858;4.384;2022-10-31T16:44:18;20.23;;;9.18;;
22634;SDS011;11484;50.858;4.384;2022-10-31T16:46:47;19.73;;;9.18;;
22634;SDS011;11484;50.858;4.384;2022-10-31T16:49:12;17.77;;;9.25;;
22634;SDS011;11484;50.858;4.384;2022-10-31T16:51:40;17.05;;;8.57;;
22634;SDS011;11484;50.858;4.384;2022-10-31T16:54:06;15.55;;;7.88;;
22634;SDS011;11484;50.858;4.384;2022-10-31T16:56:34;20.27;;;8.70;;
22634;SDS011;11484;50.858;4.384;2022-10-31T16:59:03;16.15;;;9.00;;
22634;SDS011;11484;50.858;4.384;2022-10-31T17:01:31;15.27;;;8.77;;
22634;SDS011;11484;50.858;4.384;2022-10-31T17:04:00;16.35;;;8.55;;
22634;SDS011;11484;50.858;4.384;2022-10-31T17:06:25;15.77;;;8.27;;
22634;SDS011;11484;50.858;4.384;2022-10-31T17:08:52;19.38;;;8.88;;
22634;SDS011;11484;50.858;4.384;2022-10-31T17:11:21;19.08;;;7.82;;
22634;SDS011;11484;50.858;4.384;2022-10-31T17:16:15;14.25;;;7.90;;
22634;SDS011;11484;50.858;4.384;2022-10-31T17:18:41;19.30;;;8.85;;
22634;SDS011;11484;50.858;4.384;2022-10-31T17:21:09;13.20;;;7.25;;
22634;SDS011;11484;50.858;4.384;2022-10-31T17:23:47;14.77;;;6.95;;
22634;SDS011;11484;50.858;4.384;2022-10-31T17:26:14;12.02;;;6.32;;
22634;SDS011;11484;50.858;4.384;2022-10-31T17:28:40;14.48;;;6.93;;
22634;SDS011;11484;50.858;4.384;2022-10-31T17:31:07;13.40;;;6.43;;
22634;SDS011;11484;50.858;4.384;2022-10-31T17:33:47;11.23;;;5.50;;
22634;SDS011;11484;50.858;4.384;2022-10-31T17:36:13;11.70;;;5.43;;
22634;SDS011;11484;50.858;4.384;2022-10-31T17:38:39;11.90;;;5.43;;
22634;SDS011;11484;50.858;4.384;2022-10-31T17:41:05;11.05;;;5.50;;
22634;SDS011;11484;50.858;4.384;2022-10-31T17:43:33;13.27;;;5.53;;
22634;SDS011;11484;50.858;4.384;2022-10-31T17:46:00;10.98;;;5.38;;
22634;SDS011;11484;50.858;4.384;2022-10-31T17:48:26;11.52;;;5.00;;
22634;SDS011;11484;50.858;4.384;2022-10-31T17:50:52;15.45;;;6.43;;